Time;durP1;ratioP1;P1;durP2;ratioP2;P2;SDS_P1;SDS_P2;PMS_P1;PMS_P2;Temp;Humidity;BMP_temperature;BMP_pressure;BME280_temperature;BME280_humidity;BME280_pressure;Samples;Min_cycle;Max_cycle;Signal;HPM_P1;HPM_P2
2021/03/16 00:00:16;;;;;;;;;;;153.90;2124.80;;;;;;5077525;28;20106;-84
2021/03/16 00:02:41;;;;;;;;;;;153.90;2124.80;;;;;;5078250;28;19904;-89
2021/03/16 00:05:08;;;;;;;11.30;6.57;;;153.80;2124.80;;;;;;5076916;28;19918;-85
2021/03/16 00:07:34;;;;;;;10.50;6.53;;;154.00;2099.20;;;;;;5077455;28;20028;-86
2021/03/16 00:09:59;;;;;;;;;;;153.80;2099.20;;;;;;5077810;28;20031;-88
2021/03/16 00:12:26;;;;;;;23.48;8.55;;;153.80;2124.80;;;;;;5085724;28;19908;-89
2021/03/16 00:14:52;;;;;;;13.57;7.55;;;153.90;2124.80;;;;;;5077389;28;20036;-85
2021/03/16 00:17:18;;;;;;;;;;;153.80;2099.20;;;;;;5078434;28;20020;-85
2021/03/16 00:19:45;;;;;;;18.60;8.20;;;153.80;2099.20;;;;;;5077004;28;19953;-85
2021/03/16 00:22:11;;;;;;;17.80;7.78;;;153.90;2099.20;;;;;;5080191;28;20537;-88
2021/03/16 00:24:36;;;;;;;;;;;153.70;2073.60;;;;;;5058294;28;20028;-88
2021/03/16 00:27:02;;;;;;;16.63;7.90;;;153.80;2073.60;;;;;;5074095;28;19939;-88
2021/03/16 00:29:28;;;;;;;;;;;153.70;2073.60;;;;;;5073869;28;20040;-84
2021/03/16 00:31:54;;;;;;;32.22;12.63;;;154.10;2073.60;;;;;;5078917;28;20288;-85
2021/03/16 00:34:19;;;;;;;;;;;153.80;2073.60;;;;;;5077434;28;20494;-90
2021/03/16 00:36:45;;;;;;;31.35;13.40;;;153.90;2073.60;;;;;;5082265;28;19908;-90
2021/03/16 00:39:10;;;;;;;;;;;154.00;2073.60;;;;;;5096270;28;20058;-83
2021/03/16 00:41:36;;;;;;;36.67;14.45;;;154.10;2048.00;;;;;;5077828;28;20370;-84
2021/03/16 00:44:02;;;;;;;;;;;154.00;2099.20;;;;;;5077086;28;20032;-87
2021/03/16 00:46:28;;;;;;;30.85;14.25;;;153.70;2124.80;;;;;;5085887;28;19915;-87
2021/03/16 00:48:53;;;;;;;;;;;153.90;2073.60;;;;;;5097956;28;20114;-87
2021/03/16 00:51:19;;;;;;;28.10;13.05;;;153.70;2124.80;;;;;;5093815;28;19926;-86
2021/03/16 00:53:45;;;;;;;;;;;128.90;2124.80;;;;;;5095290;28;20068;-87
2021/03/16 00:56:11;;;;;;;20.45;9.85;;;153.60;2124.80;;;;;;5076947;28;19915;-87
2021/03/16 00:58:36;;;;;;;;;;;128.90;2124.80;;;;;;5077265;28;20420;-87
2021/03/16 01:01:06;;;;;;;23.30;10.20;;;153.60;2099.20;;;;;;5073699;28;20362;-83
2021/03/16 01:03:32;;;;;;;22.58;10.95;;;153.60;2099.20;;;;;;5076915;28;20099;-83
2021/03/16 01:05:58;;;;;;;21.50;11.95;;;128.90;2124.80;;;;;;5076749;28;20385;-83
2021/03/16 01:08:24;;;;;;;;;;;128.90;2099.20;;;;;;5062827;28;20629;-87
2021/03/16 01:10:51;;;;;;;19.67;9.30;;;128.80;2124.80;;;;;;5076696;28;19951;-83
2021/03/16 01:13:18;;;;;;;26.40;10.40;;;128.80;2124.80;;;;;;5076216;28;20032;-83
2021/03/16 01:15:44;;;;;;;19.42;10.02;;;128.90;2124.80;;;;;;5094295;28;20101;-83
2021/03/16 01:18:10;;;;;;;;;;;128.90;2099.20;;;;;;5076398;28;20483;-83
2021/03/16 01:20:36;;;;;;;24.77;10.70;;;128.90;2099.20;;;;;;5072803;28;19905;-82
2021/03/16 01:23:02;;;;;;;26.08;11.93;;;128.80;2124.80;;;;;;5084640;28;20020;-84
2021/03/16 01:25:28;;;;;;;17.40;8.73;;;128.80;2099.20;;;;;;5076440;28;20101;-83
2021/03/16 01:27:56;;;;;;;;;;;128.80;2124.80;;;;;;5067983;28;20488;-85
2021/03/16 01:30:23;;;;;;;24.13;11.50;;;128.80;2124.80;;;;;;5076343;28;19904;-86
2021/03/16 01:32:49;;;;;;;21.92;10.68;;;128.70;2124.80;;;;;;5094546;28;20061;-84
2021/03/16 01:35:15;;;;;;;18.95;10.75;;;128.80;2099.20;;;;;;5075902;28;20024;-87
2021/03/16 01:37:42;;;;;;;;;;;128.80;2124.80;;;;;;5076825;28;20035;-83
2021/03/16 01:40:16;;;;;;;22.70;11.00;;;128.80;2124.80;;;;;;5076594;28;19908;-83
2021/03/16 01:42:43;;;;;;;20.35;10.75;;;128.70;2124.80;;;;;;5075924;28;20050;-84
2021/03/16 01:45:13;;;;;;;22.50;11.10;;;128.80;2124.80;;;;;;5076312;28;20058;-85
2021/03/16 01:47:49;;;;;;;25.50;11.07;;;128.80;2124.80;;;;;;5075930;28;20022;-85
2021/03/16 01:50:20;;;;;;;22.08;10.63;;;128.80;2124.80;;;;;;5071763;28;20034;-83
2021/03/16 01:52:47;;;;;;;18.85;9.52;;;128.70;2124.80;;;;;;5075690;28;20036;-88
2021/03/16 01:55:14;;;;;;;19.35;10.30;;;128.60;2124.80;;;;;;5075279;28;20050;-83
2021/03/16 01:57:41;;;;;;;18.88;10.70;;;128.80;2124.80;;;;;;5074590;28;20039;-89
2021/03/16 02:00:09;;;;;;;18.17;9.57;;;128.60;2150.40;;;;;;5075256;28;20111;-82
2021/03/16 02:02:35;;;;;;;17.77;9.60;;;128.90;2099.20;;;;;;5064792;28;20979;-82
2021/03/16 02:05:01;;;;;;;;;;;128.80;2099.20;;;;;;5075355;28;20039;-85
2021/03/16 02:07:36;;;;;;;17.83;9.13;;;128.60;2150.40;;;;;;5075348;28;19943;-84
2021/03/16 02:10:12;;;;;;;20.85;11.25;;;128.80;2124.80;;;;;;5075112;28;20110;-84
2021/03/16 02:12:54;;;;;;;16.55;8.63;;;128.90;2124.80;;;;;;5065870;28;20476;-89
2021/03/16 02:15:26;;;;;;;19.83;10.32;;;153.70;2073.60;;;;;;5068648;28;20036;-84
2021/03/16 02:17:57;;;;;;;18.63;9.95;;;153.80;2073.60;;;;;;5092879;28;20027;-83
2021/03/16 02:20:41;;;;;;;16.80;9.43;;;128.90;2099.20;;;;;;5088000;28;20484;-82
2021/03/16 02:23:10;;;;;;;16.23;8.82;;;153.80;2073.60;;;;;;5076206;28;20024;-85
2021/03/16 02:25:45;;;;;;;16.35;9.15;;;153.70;2048.00;;;;;;5064074;28;20067;-83
2021/03/16 02:28:29;;;;;;;14.82;8.27;;;153.70;2048.00;;;;;;5096753;28;20081;-89
2021/03/16 02:30:56;;;;;;;21.08;9.55;;;153.60;2048.00;;;;;;5078532;28;20131;-88
2021/03/16 02:33:25;;;;;;;16.30;9.25;;;153.80;2048.00;;;;;;5078659;28;20016;-89
2021/03/16 02:35:52;;;;;;;17.17;8.85;;;153.70;2022.40;;;;;;5078484;28;20028;-87
2021/03/16 02:38:24;;;;;;;20.38;9.52;;;153.70;2022.40;;;;;;5078496;28;20028;-86
2021/03/16 02:40:52;;;;;;;16.38;9.30;;;153.90;1996.80;;;;;;5078448;28;20031;-83
2021/03/16 02:43:20;;;;;;;16.50;10.05;;;153.90;2022.40;;;;;;5077377;28;20063;-89
2021/03/16 02:45:48;;;;;;;20.38;9.95;;;153.90;2022.40;;;;;;5078193;28;20051;-89
2021/03/16 02:48:15;;;;;;;16.58;9.63;;;153.80;2022.40;;;;;;5078124;28;20028;-83
2021/03/16 02:50:44;;;;;;;16.52;9.55;;;153.70;2048.00;;;;;;5077650;28;20499;-83
2021/03/16 02:53:12;;;;;;;15.50;9.82;;;128.70;2073.60;;;;;;5042937;28;994049;-84
2021/03/16 02:55:40;;;;;;;18.00;9.02;;;153.60;2048.00;;;;;;5079463;28;20122;-83
2021/03/16 02:58:07;;;;;;;14.98;9.85;;;153.70;2022.40;;;;;;5079709;28;20020;-88
2021/03/16 03:00:33;;;;;;;21.50;10.25;;;153.80;2022.40;;;;;;5097177;28;20024;-82
2021/03/16 03:03:01;;;;;;;23.45;11.18;;;153.70;2048.00;;;;;;5078950;28;20056;-84
2021/03/16 03:05:27;;;;;;;20.98;10.10;;;153.90;2048.00;;;;;;5079435;28;20028;-86
2021/03/16 03:07:55;;;;;;;19.13;9.75;;;153.80;2048.00;;;;;;5071100;28;20028;-83
2021/03/16 03:10:21;;;;;;;23.33;10.40;;;153.80;2048.00;;;;;;5075758;28;20021;-89
2021/03/16 03:12:47;;;;;;;12.93;7.95;;;153.80;2048.00;;;;;;5079108;28;20464;-84
2021/03/16 03:15:12;;;;;;;;;;;153.80;2048.00;;;;;;5079283;28;20028;-83
2021/03/16 03:17:38;;;;;;;15.40;8.75;;;153.70;2048.00;;;;;;5079139;28;19947;-84
2021/03/16 03:20:08;;;;;;;;;;;153.70;2048.00;;;;;;5065396;28;20025;-82
2021/03/16 03:22:49;;;;;;;16.25;8.32;;;153.60;2048.00;;;;;;5078666;28;19912;-86
2021/03/16 03:25:24;;;;;;;20.40;9.52;;;128.80;2073.60;;;;;;5078712;28;20024;-83
2021/03/16 03:28:01;;;;;;;13.75;8.55;;;128.60;2099.20;;;;;;5079010;28;20024;-83
2021/03/16 03:30:27;;;;;;;18.90;9.07;;;128.60;2099.20;;;;;;5078326;28;20040;-90
2021/03/16 03:33:02;;;;;;;13.45;7.90;;;128.80;2073.60;;;;;;5077869;28;20468;-90
2021/03/16 03:35:33;;;;;;;16.90;9.23;;;128.70;2099.20;;;;;;5077893;28;20452;-87
2021/03/16 03:38:01;;;;;;;19.25;10.73;;;128.60;2099.20;;;;;;5078126;28;20046;-84
2021/03/16 03:40:28;;;;;;;16.88;8.68;;;128.60;2099.20;;;;;;5077651;28;20075;-83
2021/03/16 03:43:06;;;;;;;18.42;9.88;;;128.30;2124.80;;;;;;5090374;28;20028;-84
2021/03/16 03:45:34;;;;;;;14.63;9.00;;;128.40;2150.40;;;;;;5072108;28;20050;-88
2021/03/16 03:48:03;;;;;;;18.00;9.43;;;128.50;2124.80;;;;;;5078761;28;20024;-84
2021/03/16 03:50:29;;;;;;;16.63;8.65;;;128.50;2124.80;;;;;;5078080;28;20525;-84
2021/03/16 03:52:57;;;;;;;19.70;9.88;;;128.60;2099.20;;;;;;5078044;28;20101;-85
2021/03/16 03:55:25;;;;;;;17.73;9.60;;;128.60;2099.20;;;;;;5078420;28;20024;-84
2021/03/16 03:57:52;;;;;;;16.45;9.15;;;128.60;2124.80;;;;;;5077895;28;20369;-87
2021/03/16 04:00:20;;;;;;;22.88;11.65;;;128.60;2099.20;;;;;;5077762;28;20028;-83
2021/03/16 04:02:46;;;;;;;20.45;9.50;;;128.20;2150.40;;;;;;5077391;28;20093;-89
2021/03/16 04:05:12;;;;;;;;;;;128.20;2150.40;;;;;;5078559;28;20487;-89
2021/03/16 04:07:38;;;;;;;19.63;9.13;;;128.20;2124.80;;;;;;5077607;28;19929;-84
2021/03/16 04:10:06;;;;;;;15.88;9.85;;;128.30;2150.40;;;;;;5096105;28;20024;-83
2021/03/16 04:12:34;;;;;;;21.80;10.63;;;128.40;2124.80;;;;;;5095772;28;20020;-87
2021/03/16 04:15:01;;;;;;;21.15;11.35;;;128.40;2124.80;;;;;;5095826;28;20031;-87
2021/03/16 04:17:27;;;;;;;21.27;11.32;;;128.10;2150.40;;;;;;5095838;28;20391;-84
2021/03/16 04:19:54;;;;;;;;;;;128.20;2150.40;;;;;;5095937;28;20017;-83
2021/03/16 04:22:20;;;;;;;17.73;9.65;;;128.40;2099.20;;;;;;5095823;28;20484;-85
2021/03/16 04:24:46;;;;;;;18.13;10.02;;;128.00;2124.80;;;;;;5095595;28;20038;-88
2021/03/16 04:27:12;;;;;;;20.45;10.80;;;128.10;2124.80;;;;;;5077232;28;20036;-83
2021/03/16 04:29:38;;;;;;;;;;;103.20;2150.40;;;;;;5078198;28;20016;-85
2021/03/16 04:32:04;;;;;;;21.77;11.68;;;103.20;2124.80;;;;;;5094427;28;19919;-84
2021/03/16 04:34:29;;;;;;;22.90;10.75;;;103.20;2150.40;;;;;;5095003;28;20549;-84
2021/03/16 04:36:55;;;;;;;;;;;103.20;2124.80;;;;;;5096405;28;20028;-86
2021/03/16 04:39:21;;;;;;;19.15;10.30;;;103.00;2150.40;;;;;;5076988;28;19949;-83
2021/03/16 04:41:46;;;;;;;;;;;103.00;2176.00;;;;;;5077470;28;20027;-89
2021/03/16 04:44:12;;;;;;;25.45;12.15;;;103.10;2150.40;;;;;;5076725;28;19965;-94
2021/03/16 04:46:37;;;;;;;;;;;103.00;2176.00;;;;;;5094459;28;20051;-89
2021/03/16 04:49:03;;;;;;;21.98;10.75;;;102.90;2201.60;;;;;;5094751;28;19908;-84
2021/03/16 04:51:29;;;;;;;;;;;103.00;2176.00;;;;;;5077518;28;20020;-93
2021/03/16 04:53:55;;;;;;;22.17;11.85;;;103.00;2150.40;;;;;;5086564;28;20430;-84
2021/03/16 04:56:20;;;;;;;;;;;103.10;2176.00;;;;;;5077429;28;20471;-86
2021/03/16 04:58:46;;;;;;;19.58;9.93;;;103.00;2176.00;;;;;;5077019;28;19911;-83
2021/03/16 05:01:12;;;;;;;;;;;102.90;2176.00;;;;;;5077007;28;20020;-83
2021/03/16 05:03:38;;;;;;;20.13;10.18;;;102.80;2201.60;;;;;;5077048;28;19908;-83
2021/03/16 05:06:03;;;;;;;;;;;102.70;2227.20;;;;;;5077364;28;20032;-83
2021/03/16 05:08:29;;;;;;;26.58;12.02;;;102.60;2227.20;;;;;;5076260;28;20291;-84
2021/03/16 05:10:55;;;;;;;;;;;102.80;2227.20;;;;;;5077023;28;20020;-84
2021/03/16 05:13:20;;;;;;;25.77;11.38;;;102.70;2227.20;;;;;;5093431;28;19953;-92
2021/03/16 05:15:47;;;;;;;19.08;9.95;;;102.80;2227.20;;;;;;5076420;28;20020;-86
2021/03/16 05:18:12;;;;;;;20.08;10.45;;;103.00;2201.60;;;;;;5076901;28;20036;-82
2021/03/16 05:20:38;;;;;;;;;;;102.80;2227.20;;;;;;5094730;28;20031;-83
2021/03/16 05:23:04;;;;;;;19.70;10.02;;;102.70;2227.20;;;;;;5076111;28;19935;-84
2021/03/16 05:25:31;;;;;;;;;;;102.70;2227.20;;;;;;5076926;28;20169;-93
2021/03/16 05:27:57;;;;;;;24.75;10.10;;;102.90;2227.20;;;;;;5094739;28;19904;-89
2021/03/16 05:30:23;;;;;;;;;;;102.80;2227.20;;;;;;5094749;28;20176;-87
2021/03/16 05:32:56;;;;;;;20.35;9.32;;;102.60;2227.20;;;;;;5076147;28;20358;-83
2021/03/16 05:35:26;;;;;;;20.77;9.40;;;102.80;2227.20;;;;;;5076208;28;20024;-84
2021/03/16 05:37:52;;;;;;;17.92;10.75;;;102.80;2227.20;;;;;;5076455;28;20027;-93
2021/03/16 05:40:18;;;;;;;18.08;10.45;;;102.60;2227.20;;;;;;5076886;28;20479;-91
2021/03/16 05:42:45;;;;;;;;;;;102.80;2227.20;;;;;;5076693;28;20028;-82
2021/03/16 05:45:12;;;;;;;22.52;10.15;;;102.90;2227.20;;;;;;5076348;28;19911;-89
2021/03/16 05:47:40;;;;;;;18.75;9.88;;;102.90;2227.20;;;;;;5076333;28;20024;-83
2021/03/16 05:50:08;;;;;;;19.20;10.85;;;102.90;2227.20;;;;;;5072740;28;20016;-86
2021/03/16 05:52:34;;;;;;;24.30;10.20;;;103.00;2227.20;;;;;;5075863;28;20123;-87
2021/03/16 05:55:01;;;;;;;19.13;10.48;;;103.00;2227.20;;;;;;5076322;28;20016;-91
2021/03/16 05:57:27;;;;;;;18.50;9.82;;;103.10;2201.60;;;;;;5076083;28;20488;-82
2021/03/16 05:59:53;;;;;;;;;;;103.10;2201.60;;;;;;5076574;28;20024;-82
2021/03/16 06:02:19;;;;;;;25.67;11.82;;;103.10;2227.20;;;;;;5076079;28;19904;-89
2021/03/16 06:04:46;;;;;;;22.35;11.70;;;103.00;2227.20;;;;;;5075697;28;20165;-92
2021/03/16 06:07:12;;;;;;;;;;;103.10;2227.20;;;;;;5064001;28;20061;-84
2021/03/16 06:09:38;;;;;;;35.75;15.45;;;103.00;2227.20;;;;;;5075387;28;19923;-89
2021/03/16 06:12:04;;;;;;;;;;;102.90;2227.20;;;;;;5076036;28;20024;-84
2021/03/16 06:14:33;;;;;;;25.75;13.07;;;103.10;2227.20;;;;;;5093384;28;20287;-83
2021/03/16 06:17:00;;;;;;;25.92;11.88;;;103.10;2227.20;;;;;;5075566;28;20054;-83
2021/03/16 06:19:29;;;;;;;18.67;11.02;;;103.00;2227.20;;;;;;5077177;28;20499;-87
2021/03/16 06:22:07;;;;;;;21.67;11.07;;;103.20;2227.20;;;;;;5075573;28;20050;-87
2021/03/16 06:24:37;;;;;;;26.45;12.38;;;103.30;2227.20;;;;;;5076193;28;20539;-85
2021/03/16 06:27:03;;;;;;;23.65;12.68;;;103.30;2227.20;;;;;;5076423;28;20110;-93
2021/03/16 06:29:38;;;;;;;;;;;128.10;2201.60;;;;;;5076654;28;20059;-80
2021/03/16 06:32:12;;;;;;;21.17;11.98;;;128.10;2227.20;;;;;;5093234;28;19904;-86
2021/03/16 06:34:38;;;;;;;24.75;12.40;;;103.30;2227.20;;;;;;5075543;28;20047;-82
2021/03/16 06:37:04;;;;;;;;;;;128.00;2252.80;;;;;;5086137;28;20472;-83
2021/03/16 06:39:30;;;;;;;26.83;10.98;;;128.00;2227.20;;;;;;5075289;28;19904;-82
2021/03/16 06:41:55;;;;;;;;;;;128.40;2201.60;;;;;;5075938;28;20081;-89
2021/03/16 06:44:22;;;;;;;31.10;13.45;;;128.10;2252.80;;;;;;5075694;28;19908;-84
2021/03/16 06:46:55;;;;;;;24.15;12.23;;;128.10;2252.80;;;;;;5075413;28;20067;-84
2021/03/16 06:49:22;;;;;;;21.40;11.60;;;128.10;2252.80;;;;;;5075652;28;20020;-83
2021/03/16 06:51:49;;;;;;;22.05;11.15;;;128.20;2227.20;;;;;;5081501;28;20032;-83
2021/03/16 06:54:25;;;;;;;15.95;9.93;;;128.20;2252.80;;;;;;5075213;28;20487;-85
2021/03/16 06:56:52;;;;;;;28.23;11.85;;;128.50;2176.00;;;;;;5075065;28;20020;-83
2021/03/16 06:59:25;;;;;;;25.73;12.75;;;128.50;2227.20;;;;;;5075508;28;20036;-87
2021/03/16 07:01:51;;;;;;;24.02;11.93;;;128.50;2227.20;;;;;;5075492;28;20024;-85
2021/03/16 07:04:18;;;;;;;;;;;128.60;2227.20;;;;;;5076006;28;20089;-82
2021/03/16 07:06:44;;;;;;;30.23;13.35;;;128.60;2176.00;;;;;;5088196;28;19912;-83
2021/03/16 07:09:12;;;;;;;25.10;11.80;;;128.60;2176.00;;;;;;5076468;28;20055;-83
2021/03/16 07:11:40;;;;;;;25.17;11.70;;;128.60;2201.60;;;;;;5079125;28;20023;-85
2021/03/16 07:14:07;;;;;;;18.77;10.32;;;128.70;2201.60;;;;;;5078347;28;20032;-82
2021/03/16 07:16:35;;;;;;;18.92;10.70;;;128.60;2176.00;;;;;;5078050;28;20108;-82
2021/03/16 07:19:05;;;;;;;28.35;12.93;;;128.70;2176.00;;;;;;5078406;28;20028;-82
2021/03/16 07:21:54;;;;;;;26.77;13.63;;;128.70;2201.60;;;;;;5078474;28;20046;-81
2021/03/16 07:24:26;;;;;;;24.05;13.25;;;128.80;2201.60;;;;;;5078883;28;20016;-84
2021/03/16 07:26:55;;;;;;;23.42;13.00;;;128.60;2176.00;;;;;;5068568;28;20071;-79
2021/03/16 07:29:21;;;;;;;40.25;19.10;;;128.90;2201.60;;;;;;5096168;28;20106;-80
2021/03/16 07:31:49;;;;;;;;;;;153.60;2176.00;;;;;;5078709;28;20028;-86
2021/03/16 07:34:18;;;;;;;60.45;25.20;;;153.70;2176.00;;;;;;5078356;28;19908;-82
2021/03/16 07:36:46;;;;;;;45.25;21.75;;;153.70;2201.60;;;;;;5078837;28;20031;-89
2021/03/16 07:39:18;;;;;;;39.97;19.92;;;153.70;2176.00;;;;;;5077682;28;20020;-85
2021/03/16 07:41:44;;;;;;;48.38;22.00;;;153.70;2176.00;;;;;;5078952;28;20016;-91
2021/03/16 07:44:10;;;;;;;;;;;153.80;2201.60;;;;;;5096698;28;20021;-84
2021/03/16 07:47:08;;;;;;;26.30;14.65;;;154.00;2150.40;;;;;;5095763;28;20394;-86
2021/03/16 07:49:41;;;;;;;31.48;15.25;;;154.00;2099.20;;;;;;4994673;28;20071;-82
2021/03/16 07:52:18;;;;;;;26.77;16.05;;;154.20;2099.20;;;;;;4978459;28;20494;-83
2021/03/16 07:54:48;;;;;;;26.33;15.90;;;154.10;2099.20;;;;;;4994542;28;20046;-80
2021/03/16 07:57:28;;;;;;;26.08;14.35;;;154.10;2124.80;;;;;;4994218;28;20034;-81
2021/03/16 08:00:00;;;;;;;24.25;13.40;;;154.10;2099.20;;;;;;4993751;28;20117;-81
2021/03/16 08:02:27;;;;;;;20.23;12.80;;;154.10;2099.20;;;;;;4994351;28;20030;-85
2021/03/16 08:04:52;;;;;;;24.70;14.52;;;154.20;2099.20;;;;;;4994689;28;20034;-82
2021/03/16 08:07:20;;;;;;;;;;;154.20;2073.60;;;;;;4994891;28;20092;-85
2021/03/16 08:09:51;;;;;;;;;;;154.40;2073.60;;;;;;4995040;28;19950;-89
2021/03/16 08:12:24;;;;;;;23.83;13.82;;;154.40;2073.60;;;;;;4992868;28;19913;-84
2021/03/16 08:14:50;;;;;;;24.85;12.13;;;154.50;2048.00;;;;;;4994539;28;20082;-90
2021/03/16 08:17:41;;;;;;;;;;;154.50;2022.40;;;;;;4994680;28;20030;-82
2021/03/16 08:20:07;;;;;;;18.33;11.55;;;179.30;2022.40;;;;;;4987804;28;19906;-84
2021/03/16 08:22:33;;;;;;;23.95;14.32;;;154.30;2073.60;;;;;;5005077;28;20019;-83
2021/03/16 08:24:59;;;;;;;;;;;154.50;2048.00;;;;;;5019889;28;20030;-86
2021/03/16 08:27:27;;;;;;;17.10;9.80;;;154.50;2048.00;;;;;;5095708;28;19908;-84
2021/03/16 08:29:53;;;;;;;21.02;11.70;;;154.30;2022.40;;;;;;5077705;28;20020;-81
2021/03/16 08:32:20;;;;;;;18.05;10.95;;;154.50;2073.60;;;;;;5076937;28;20110;-93
2021/03/16 08:34:47;;;;;;;19.17;11.65;;;154.50;2073.60;;;;;;5076282;28;20075;-88
2021/03/16 08:37:24;;;;;;;26.17;11.70;;;154.50;2048.00;;;;;;5076754;28;20020;-82
2021/03/16 08:39:51;;;;;;;31.80;15.32;;;154.50;2048.00;;;;;;5077608;28;20045;-86
2021/03/16 08:42:19;;;;;;;22.60;12.23;;;154.50;2048.00;;;;;;5094883;28;20072;-82
2021/03/16 08:44:45;;;;;;;22.38;12.95;;;179.30;2099.20;;;;;;5076779;28;20024;-80
2021/03/16 08:47:21;;;;;;;21.35;12.45;;;179.30;2048.00;;;;;;5071370;28;20028;-82
2021/03/16 08:49:49;;;;;;;25.20;14.70;;;179.40;2048.00;;;;;;5092600;28;20036;-86
2021/03/16 08:52:21;;;;;;;18.85;11.20;;;179.50;2048.00;;;;;;5088884;28;20116;-81
2021/03/16 08:54:48;;;;;;;20.38;12.30;;;179.50;1996.80;;;;;;5076354;28;20115;-84
2021/03/16 08:57:31;;;;;;;26.65;13.52;;;179.60;1996.80;;;;;;5076637;28;20016;-85
2021/03/16 08:59:59;;;;;;;22.08;12.80;;;179.70;2022.40;;;;;;5073682;28;20053;-85
2021/03/16 09:02:30;;;;;;;21.33;12.35;;;179.70;1996.80;;;;;;5074585;28;20024;-86
2021/03/16 09:04:57;;;;;;;18.08;10.70;;;179.80;1945.60;;;;;;5076274;28;20061;-81
2021/03/16 09:07:36;;;;;;;18.23;12.07;;;179.90;1971.20;;;;;;5077998;28;20017;-85
2021/03/16 09:10:10;;;;;;;20.63;12.48;;;179.90;1945.60;;;;;;5076597;28;20127;-89
2021/03/16 09:12:41;;;;;;;19.00;11.60;;;180.10;1945.60;;;;;;5076220;28;20027;-88
2021/03/16 09:15:13;;;;;;;20.05;12.57;;;180.00;1945.60;;;;;;5091254;28;20166;-83
2021/03/16 09:17:42;;;;;;;19.42;12.23;;;204.80;1920.00;;;;;;5071904;28;20032;-82
2021/03/16 09:20:09;;;;;;;25.35;12.63;;;205.00;1920.00;;;;;;5075705;28;20035;-81
2021/03/16 09:22:35;;;;;;;18.48;11.57;;;205.10;1920.00;;;;;;5094311;28;20043;-81
2021/03/16 09:25:00;;;;;;;;;;;205.10;1894.40;;;;;;5076503;28;20475;-81
2021/03/16 09:27:26;;;;;;;18.85;11.32;;;205.20;1920.00;;;;;;5074025;28;19962;-81
2021/03/16 09:29:52;;;;;;;;;;;205.40;1894.40;;;;;;5076199;28;20445;-80
2021/03/16 09:32:18;;;;;;;17.48;10.88;;;205.50;1868.80;;;;;;5074928;28;20623;-82
2021/03/16 09:34:47;;;;;;;18.65;10.70;;;205.60;1868.80;;;;;;5075570;28;20081;-81
2021/03/16 09:37:15;;;;;;;15.95;10.70;;;205.60;1792.00;;;;;;5075325;28;20042;-82
2021/03/16 09:40:11;;;;;;;17.02;10.40;;;205.60;1817.60;;;;;;5090093;28;20103;-80
2021/03/16 09:42:55;;;;;;;15.98;10.02;;;230.40;1843.20;;;;;;5010997;28;20117;-80
2021/03/16 09:45:24;;;;;;;22.75;12.65;;;230.40;1792.00;;;;;;5000185;28;20031;-81
2021/03/16 09:47:51;;;;;;;19.67;11.00;;;230.60;1817.60;;;;;;5010956;28;20109;-81
2021/03/16 09:50:22;;;;;;;19.30;10.68;;;230.80;1740.80;;;;;;5012085;28;20478;-81
2021/03/16 09:52:55;;;;;;;17.48;10.65;;;230.70;1740.80;;;;;;4994982;28;20137;-82
2021/03/16 09:55:24;;;;;;;20.38;12.23;;;230.70;1766.40;;;;;;4995166;28;20038;-89
2021/03/16 09:57:50;;;;;;;28.77;12.80;;;230.90;1766.40;;;;;;4998635;28;20068;-82
2021/03/16 10:00:16;;;;;;;;;;;230.90;1740.80;;;;;;5008879;28;20065;-86
2021/03/16 10:02:42;;;;;;;13.40;9.60;;;231.10;1689.60;;;;;;5002663;28;19909;-86
2021/03/16 10:05:15;;;;;;;;;;;231.00;1587.20;;;;;;5012333;28;20092;-85
2021/03/16 10:07:41;;;;;;;19.42;9.48;;;231.10;1638.40;;;;;;5008569;28;20365;-83
2021/03/16 10:10:17;;;;;;;17.80;11.15;;;230.90;1587.20;;;;;;5012124;28;20022;-88
2021/03/16 10:13:02;;;;;;;14.55;9.13;;;230.90;1561.60;;;;;;5011554;28;20034;-81
2021/03/16 10:15:32;;;;;;;14.20;9.38;;;231.00;1587.20;;;;;;5011783;28;20089;-86
2021/03/16 10:17:59;;;;;;;13.85;8.93;;;231.30;1561.60;;;;;;5000277;28;20052;-84
2021/03/16 10:20:33;;;;;;;14.98;8.73;;;231.20;1536.00;;;;;;5086305;28;20019;-82
2021/03/16 10:23:21;;;;;;;13.50;8.15;;;231.10;1510.40;;;;;;5091053;28;20056;-81
2021/03/16 10:25:57;;;;;;;16.23;9.18;;;231.20;1510.40;;;;;;5075774;28;20028;-81
2021/03/16 10:28:40;;;;;;;20.38;11.23;;;231.20;1536.00;;;;;;5075458;28;20024;-81
2021/03/16 10:31:14;;;;;;;16.92;10.80;;;231.30;1561.60;;;;;;5062588;28;20086;-81
2021/03/16 10:33:39;;;;;;;21.75;10.15;;;231.20;1510.40;;;;;;5061062;28;20031;-81
2021/03/16 10:36:05;;;;;;;;;;;231.30;1561.60;;;;;;5062155;28;20028;-87
2021/03/16 10:38:31;;;;;;;12.15;7.75;;;231.30;1536.00;;;;;;5075620;28;19911;-85
2021/03/16 10:40:56;;;;;;;;;;;231.20;1484.80;;;;;;5093655;28;20024;-86
2021/03/16 10:43:22;;;;;;;18.48;8.15;;;231.30;1536.00;;;;;;5071975;28;19904;-87
2021/03/16 10:45:48;;;;;;;;;;;256.00;1561.60;;;;;;5079691;28;20043;-82
2021/03/16 10:48:14;;;;;;;12.20;7.93;;;256.00;1536.00;;;;;;5098229;28;19904;-86
2021/03/16 10:50:39;;;;;;;;;;;256.00;1510.40;;;;;;5097657;28;20478;-82
2021/03/16 10:53:05;;;;;;;14.13;8.23;;;256.30;1536.00;;;;;;5092852;28;19916;-92
2021/03/16 10:55:31;;;;;;;16.13;9.85;;;256.40;1484.80;;;;;;5080476;28;20031;-83
2021/03/16 10:57:56;;;;;;;18.70;9.55;;;256.40;1510.40;;;;;;5078861;28;20016;-83
2021/03/16 11:00:22;;;;;;;;;;;256.40;1536.00;;;;;;5088688;28;20333;-83
2021/03/16 11:02:48;;;;;;;28.75;15.07;;;256.40;1484.80;;;;;;5084341;28;20279;-83
2021/03/16 11:05:14;;;;;;;;;;;256.40;1536.00;;;;;;5100158;28;20042;-92
2021/03/16 11:07:39;;;;;;;14.38;8.35;;;256.50;1484.80;;;;;;5099636;28;19955;-87
2021/03/16 11:10:05;;;;;;;;;;;256.50;1484.80;;;;;;5100356;28;20084;-83
2021/03/16 11:12:31;;;;;;;15.15;9.15;;;256.50;1536.00;;;;;;5080546;28;19911;-80
2021/03/16 11:14:57;;;;;;;15.10;8.55;;;256.50;1459.20;;;;;;5083305;28;20028;-83
2021/03/16 11:17:22;;;;;;;;;;;256.40;1510.40;;;;;;5075749;28;20119;-81
2021/03/16 11:19:50;;;;;;;15.57;7.80;;;256.40;1459.20;;;;;;5075518;28;19981;-81
2021/03/16 11:22:16;;;;;;;16.40;8.80;;;256.30;1484.80;;;;;;5077416;28;20024;-83
2021/03/16 11:24:41;;;;;;;17.17;8.30;;;256.30;1484.80;;;;;;5084639;28;20031;-84
2021/03/16 11:27:07;;;;;;;;;;;256.30;1459.20;;;;;;5099607;28;20081;-82
2021/03/16 11:29:33;;;;;;;15.07;8.60;;;256.50;1433.60;;;;;;5099174;28;20283;-82
2021/03/16 11:31:58;;;;;;;;;;;256.40;1459.20;;;;;;5082347;28;20025;-83
2021/03/16 11:34:24;;;;;;;13.02;8.48;;;256.50;1433.60;;;;;;5084004;28;19904;-82
2021/03/16 11:36:49;;;;;;;;;;;256.50;1433.60;;;;;;5112321;28;20023;-81
2021/03/16 11:39:15;;;;;;;14.88;8.50;;;256.40;1459.20;;;;;;5097630;28;20402;-82
2021/03/16 11:41:41;;;;;;;;;;;256.50;1459.20;;;;;;5098227;28;20020;-81
2021/03/16 11:44:06;;;;;;;16.38;9.15;;;256.70;1459.20;;;;;;5098077;28;19951;-82
2021/03/16 11:46:32;;;;;;;;;;;256.70;1433.60;;;;;;5098790;28;20058;-82
2021/03/16 11:48:58;;;;;;;14.77;9.30;;;256.30;1433.60;;;;;;5113115;28;19908;-82
2021/03/16 11:51:24;;;;;;;;;;;256.30;1459.20;;;;;;5077920;28;20027;-82
2021/03/16 11:53:49;;;;;;;15.02;9.02;;;256.40;1459.20;;;;;;5077817;28;19916;-83
2021/03/16 11:56:15;;;;;;;17.05;8.77;;;256.30;1484.80;;;;;;5088192;28;20026;-79
2021/03/16 11:58:41;;;;;;;;;;;256.60;1484.80;;;;;;5116795;28;20112;-78
2021/03/16 12:01:06;;;;;;;17.67;10.07;;;256.80;1433.60;;;;;;5116122;28;20323;-80
2021/03/16 12:03:32;;;;;;;;;;;256.90;1433.60;;;;;;5116816;28;20042;-83
2021/03/16 12:05:58;;;;;;;16.50;9.43;;;281.70;1459.20;;;;;;5075343;28;19921;-82
2021/03/16 12:08:24;;;;;;;20.02;12.27;;;281.90;1433.60;;;;;;5073785;28;20035;-82
2021/03/16 12:10:49;;;;;;;15.32;9.55;;;281.90;1433.60;;;;;;5095254;28;20032;-84
2021/03/16 12:13:16;;;;;;;;;;;282.00;1433.60;;;;;;5073672;28;20031;-90
2021/03/16 12:15:44;;;;;;;18.75;10.95;;;282.20;1408.00;;;;;;5077797;28;19908;-89
2021/03/16 12:18:10;;;;;;;20.42;11.20;;;282.20;1433.60;;;;;;5061089;28;20085;-81
2021/03/16 12:20:37;;;;;;;16.98;10.50;;;282.30;1408.00;;;;;;5094565;28;20047;-81
2021/03/16 12:23:05;;;;;;;14.35;9.05;;;282.30;1382.40;;;;;;5081130;28;20050;-86
2021/03/16 12:25:34;;;;;;;16.85;9.05;;;282.20;1356.80;;;;;;5076009;28;20040;-88
2021/03/16 12:27:59;;;;;;;17.83;10.45;;;282.20;1331.20;;;;;;5077026;28;20154;-87